Time;durP1;ratioP1;P1;durP2;ratioP2;P2;SDS_P1;SDS_P2;PMS_P1;PMS_P2;Temp;Humidity;BMP_temperature;BMP_pressure;BME280_temperature;BME280_humidity;BME280_pressure;Samples;Min_cycle;Max_cycle;Signal;HPM_P1;HPM_P2
2022/01/20 00:00:43;;;;;;;0.20;0.20;;;;;;;1.23;49.06;96151.88;5091640;28;20456;-54
2022/01/20 00:03:16;;;;;;;0.30;0.27;;;;;;;2.02;49.37;96264.72;5091096;28;20428;-53
2022/01/20 00:06:25;;;;;;;1.53;1.43;;;;;;;1.72;49.65;96205.84;5091922;28;20494;-53
2022/01/20 00:09:04;;;;;;;1.03;1.03;;;;;;;1.44;49.03;96216.31;5091155;28;20445;-54
2022/01/20 00:28:17;;;;;;;0.60;0.60;;;;;;;1.67;49.53;96253.41;5095039;28;20428;-54
2022/01/20 00:30:51;;;;;;;0.30;0.20;;;;;;;0.75;49.91;96079.66;5094340;28;21008;-54
2022/01/20 00:33:32;;;;;;;0.30;0.20;;;;;;;0.81;49.85;96091.91;5095289;28;20554;-54
2022/01/20 00:38:48;;;;;;;0.20;0.20;;;;;;;1.73;50.10;96223.91;5095101;28;20471;-54
2022/01/20 00:41:16;;;;;;;1.23;1.23;;;;;;;1.57;50.82;96229.44;5095383;28;20497;-54
2022/01/20 00:43:46;;;;;;;0.20;0.20;;;;;;;1.39;51.21;96225.69;5094999;28;20778;-54
2022/01/20 00:46:15;;;;;;;0.30;0.20;;;;;;;0.92;53.12;96197.59;5095546;28;20463;-54
2022/01/20 00:48:44;;;;;;;0.47;0.47;;;;;;;1.67;53.58;96219.44;5095579;28;20801;-54
2022/01/20 00:51:13;;;;;;;0.20;0.20;;;;;;;0.94;53.53;96213.88;5095333;28;20463;-54
2022/01/20 00:53:44;;;;;;;0.20;0.20;;;;;;;0.52;54.44;96214.69;5095472;28;20483;-54
2022/01/20 00:56:13;;;;;;;0.20;0.20;;;;;;;-0.87;55.88;95989.28;5093973;28;20429;-54
2022/01/20 00:58:42;;;;;;;0.20;0.20;;;;;;;0.78;55.16;96220.16;5094816;28;20459;-54
2022/01/20 01:01:11;;;;;;;0.20;0.20;;;;;;;0.92;55.57;96221.91;5094426;28;20514;-54
2022/01/20 01:03:40;;;;;;;0.20;0.20;;;;;;;0.78;54.62;96195.88;5094226;28;20425;-54
2022/01/20 01:06:20;;;;;;;0.20;0.20;;;;;;;1.35;53.15;96214.81;5094505;28;20952;-54
2022/01/20 01:08:49;;;;;;;0.83;0.83;;;;;;;0.92;52.69;96221.09;5094954;28;20436;-54
2022/01/20 01:11:20;;;;;;;0.20;0.20;;;;;;;1.21;51.85;96219.13;5094860;28;20462;-54
2022/01/20 01:13:49;;;;;;;0.20;0.20;;;;;;;1.42;52.37;96217.50;5094293;28;20491;-54
2022/01/20 01:16:23;;;;;;;0.47;0.47;;;;;;;1.57;52.60;96211.16;5094580;28;20494;-53
2022/01/20 01:21:44;;;;;;;0.30;0.20;;;;;;;0.34;54.41;96203.84;5094544;28;20432;-53
2022/01/20 01:24:13;;;;;;;0.30;0.20;;;;;;;0.00;57.07;96168.78;5093310;28;20439;-53
2022/01/20 01:26:42;;;;;;;0.20;0.20;;;;;;;0.04;58.06;96195.28;5094861;28;20420;-53
2022/01/20 01:29:27;;;;;;;0.53;0.53;;;;;;;0.99;56.67;96190.63;5094572;28;20425;-53
2022/01/20 01:31:57;;;;;;;0.30;0.20;;;;;;;1.27;52.34;96173.97;5094378;28;20560;-53
2022/01/20 01:34:29;;;;;;;0.20;0.20;;;;;;;1.31;51.53;96191.88;5094291;28;20900;-53
2022/01/20 01:37:06;;;;;;;0.30;0.30;;;;;;;-0.37;56.48;96188.94;5094588;28;20431;-53
2022/01/20 01:39:35;;;;;;;0.40;0.40;;;;;;;-0.77;59.70;96172.78;5093840;28;20485;-55
2022/01/20 01:42:30;;;;;;;0.30;0.30;;;;;;;-0.38;59.81;96180.31;5093212;28;20531;-53
2022/01/20 01:45:07;;;;;;;0.30;0.20;;;;;;;-1.32;58.83;96004.06;5094100;28;20997;-53
2022/01/20 01:47:40;;;;;;;1.47;1.47;;;;;;;-0.57;60.65;96174.84;5094010;28;20455;-53
2022/01/20 01:50:09;;;;;;;1.13;0.93;;;;;;;-0.16;62.57;96170.78;5093672;28;20468;-53
2022/01/20 01:52:38;;;;;;;0.33;0.33;;;;;;;-1.17;61.45;95988.50;5094262;28;20503;-53
2022/01/20 01:55:08;;;;;;;2.00;0.67;;;;;;;0.68;62.97;96162.28;5093365;28;20471;-53
2022/01/20 01:57:37;;;;;;;0.87;0.87;;;;;;;-0.55;59.10;96035.69;5093458;28;20420;-55
2022/01/20 02:00:09;;;;;;;0.20;0.20;;;;;;;0.22;58.12;96161.81;5093751;28;20433;-53
2022/01/20 02:02:40;;;;;;;0.20;0.20;;;;;;;-0.20;60.17;96154.72;5093952;28;20500;-53
2022/01/20 02:05:13;;;;;;;0.30;0.20;;;;;;;0.35;58.61;96169.78;5093399;28;20420;-53
2022/01/20 02:08:12;;;;;;;0.20;0.20;;;;;;;-0.45;59.04;96077.88;5093834;28;20467;-53
2022/01/20 02:19:02;;;;;;;0.30;0.20;;;;;;;0.19;59.92;96156.16;5093802;28;20430;-53
2022/01/20 02:21:32;;;;;;;0.20;0.20;;;;;;;0.18;59.58;96149.34;5093144;28;20433;-53
2022/01/20 02:24:00;;;;;;;0.30;0.20;;;;;;;0.41;58.64;96142.13;5093774;28;20857;-53
2022/01/20 02:26:29;;;;;;;0.30;0.20;;;;;;;0.23;57.76;96144.38;5092974;28;20464;-53
2022/01/20 02:28:58;;;;;;;0.20;0.20;;;;;;;0.25;58.09;96126.75;5093374;28;20432;-53
2022/01/20 02:31:26;;;;;;;0.30;0.20;;;;;;;0.24;58.97;96130.34;5093486;28;20489;-53
2022/01/20 02:33:57;;;;;;;0.20;0.20;;;;;;;-0.08;59.44;96129.00;5092979;28;21007;-53
2022/01/20 02:36:28;;;;;;;0.20;0.20;;;;;;;0.26;57.46;96128.34;5091446;28;20971;-53
2022/01/20 02:39:05;;;;;;;0.40;0.40;;;;;;;0.56;56.83;96119.41;5093365;28;20428;-53
2022/01/20 02:47:15;;;;;;;0.20;0.20;;;;;;;0.28;56.21;96082.06;5092894;28;20468;-53
2022/01/20 02:49:44;;;;;;;0.20;0.20;;;;;;;0.62;55.37;96116.88;5092792;28;20450;-53
2022/01/20 02:52:12;;;;;;;1.47;1.47;;;;;;;0.39;55.59;96118.88;5092626;28;20424;-53
2022/01/20 02:54:43;;;;;;;0.20;0.20;;;;;;;0.44;55.64;96115.69;5092751;28;20596;-53
2022/01/20 02:57:12;;;;;;;1.17;0.40;;;;;;;0.27;56.37;96132.59;5092242;28;20428;-54
2022/01/20 02:59:41;;;;;;;0.30;0.20;;;;;;;0.63;54.19;96113.25;5092417;28;20464;-53
2022/01/20 03:02:09;;;;;;;0.30;0.30;;;;;;;0.25;57.03;96119.75;5092288;28;20463;-53
2022/01/20 03:04:38;;;;;;;0.30;0.23;;;;;;;-0.18;58.68;96079.78;5092254;28;20425;-53
2022/01/20 03:07:12;;;;;;;0.20;0.20;;;;;;;-0.41;58.86;96027.06;5092506;28;20428;-53
2022/01/20 03:09:42;;;;;;;0.20;0.20;;;;;;;0.08;58.70;96114.94;5092381;28;20950;-53
2022/01/20 03:12:10;;;;;;;0.20;0.20;;;;;;;0.29;58.07;96107.94;5092282;28;20986;-54
2022/01/20 03:14:39;;;;;;;0.30;0.20;;;;;;;0.47;56.16;96110.13;5092594;28;20518;-53
2022/01/20 03:17:08;;;;;;;0.30;0.20;;;;;;;0.40;56.44;96106.66;5092105;28;20424;-53
2022/01/20 03:19:36;;;;;;;1.17;0.37;;;;;;;0.46;56.61;96098.06;5092133;28;20909;-53
2022/01/20 03:22:05;;;;;;;0.20;0.20;;;;;;;0.47;55.51;96110.13;5091723;28;20619;-54
2022/01/20 03:24:34;;;;;;;0.30;0.20;;;;;;;0.31;55.35;96108.56;5091956;28;20493;-53
2022/01/20 03:27:06;;;;;;;0.20;0.20;;;;;;;0.15;55.91;96090.56;5091871;28;20425;-54
2022/01/20 03:29:35;;;;;;;0.20;0.10;;;;;;;-0.91;56.17;95946.41;5092151;28;20424;-53
2022/01/20 03:32:04;;;;;;;0.20;0.20;;;;;;;0.07;54.50;96045.56;5091282;28;20489;-53
2022/01/20 03:34:34;;;;;;;0.30;0.30;;;;;;;0.54;54.13;96092.72;5091969;28;20500;-53
2022/01/20 03:37:05;;;;;;;0.20;0.17;;;;;;;0.35;54.69;96098.56;5091637;28;20452;-54
2022/01/20 03:39:33;;;;;;;0.67;0.67;;;;;;;0.14;55.12;96090.75;5092231;28;20833;-54
2022/01/20 03:42:02;;;;;;;0.20;0.10;;;;;;;-0.56;57.72;96067.13;5091391;28;20855;-54
2022/01/20 03:44:32;;;;;;;0.20;0.20;;;;;;;-0.53;58.91;96091.00;5091845;28;20416;-53
2022/01/20 03:47:03;;;;;;;0.20;0.20;;;;;;;-0.84;59.57;96073.00;5091824;28;20949;-54
2022/01/20 03:49:38;;;;;;;0.30;0.20;;;;;;;-0.74;60.26;96086.53;5091586;28;20924;-54
2022/01/20 03:52:09;;;;;;;0.20;0.20;;;;;;;-0.77;60.09;96086.91;5091817;28;20920;-55
2022/01/20 03:54:38;;;;;;;0.33;0.33;;;;;;;-2.18;60.48;95904.28;5091825;28;20555;-53
2022/01/20 03:57:06;;;;;;;0.30;0.30;;;;;;;-0.88;60.86;96089.13;5091358;28;20428;-53
2022/01/20 03:59:36;;;;;;;0.20;0.20;;;;;;;-0.95;61.59;96091.66;5091660;28;20473;-53
2022/01/20 04:02:05;;;;;;;0.27;0.23;;;;;;;-6.01;61.68;95343.84;5091736;28;20472;-53
2022/01/20 04:04:34;;;;;;;0.20;0.20;;;;;;;-1.06;60.39;96057.47;5091813;28;21012;-53
2022/01/20 04:07:04;;;;;;;0.30;0.20;;;;;;;-1.08;61.87;96095.84;5091220;28;20426;-53
2022/01/20 04:09:33;;;;;;;0.27;0.27;;;;;;;-1.47;67.81;96098.66;5091724;28;20464;-53
2022/01/20 04:12:01;;;;;;;0.33;0.33;;;;;;;-1.74;70.87;96094.81;5092025;28;20432;-53
2022/01/20 04:14:33;;;;;;;0.50;0.50;;;;;;;-2.27;72.35;96051.50;5090849;28;20456;-54
2022/01/20 04:17:05;;;;;;;0.53;0.53;;;;;;;-2.16;74.12;96091.84;5092030;28;20420;-53
2022/01/20 04:19:33;;;;;;;1.20;1.20;;;;;;;-2.28;70.31;96012.75;5091492;28;20464;-52
2022/01/20 04:22:02;;;;;;;0.27;0.20;;;;;;;-1.52;68.18;96090.59;5091396;28;20561;-52
2022/01/20 04:24:31;;;;;;;0.30;0.20;;;;;;;-3.62;68.41;95772.13;5091476;28;20474;-53
2022/01/20 04:27:00;;;;;;;0.67;0.67;;;;;;;-3.19;68.81;95825.94;5090850;28;20947;-54
2022/01/20 04:29:29;;;;;;;0.30;0.20;;;;;;;-2.04;69.47;96047.13;5091580;28;20458;-53
2022/01/20 04:31:58;;;;;;;0.20;0.20;;;;;;;-2.12;69.41;96025.59;5090533;28;20929;-54
2022/01/20 04:34:29;;;;;;;0.30;0.20;;;;;;;-1.64;69.55;96079.78;5091410;28;20942;-54
2022/01/20 04:37:00;;;;;;;0.50;0.50;;;;;;;-1.82;70.53;96084.47;5091284;28;20538;-53
2022/01/20 04:39:36;;;;;;;0.20;0.20;;;;;;;-2.05;70.28;96062.91;5089854;28;20420;-53
2022/01/20 04:42:06;;;;;;;0.20;0.20;;;;;;;-1.64;69.33;96090.19;5091246;28;20452;-53
2022/01/20 04:44:41;;;;;;;0.30;0.30;;;;;;;-1.83;70.39;96088.06;5091364;28;20474;-53
2022/01/20 04:47:23;;;;;;;2.20;0.97;;;;;;;-1.82;70.58;96091.47;5091058;28;20532;-53
2022/01/20 04:58:12;;;;;;;0.87;0.87;;;;;;;-2.00;71.60;96091.75;5091892;28;20477;-53
2022/01/20 05:00:42;;;;;;;0.40;0.40;;;;;;;-3.36;69.29;95861.50;5094712;28;20481;-53
2022/01/20 05:03:10;;;;;;;0.20;0.10;;;;;;;-1.59;68.40;96076.66;5095313;28;21008;-53
2022/01/20 05:05:40;;;;;;;0.20;0.13;;;;;;;-1.64;68.84;96079.78;5094527;28;20479;-53
2022/01/20 05:08:09;;;;;;;0.20;0.20;;;;;;;-1.57;68.28;96074.72;5095139;28;20847;-54
2022/01/20 05:10:39;;;;;;;0.40;0.40;;;;;;;-1.93;67.39;96040.72;5094542;28;20432;-53
2022/01/20 05:13:12;;;;;;;1.53;1.43;;;;;;;-1.99;69.86;96078.59;5094750;28;20436;-54
2022/01/20 05:15:41;;;;;;;2.17;2.10;;;;;;;-2.64;73.46;96002.09;5094750;28;20518;-54
2022/01/20 05:18:10;;;;;;;2.27;2.13;;;;;;;-3.56;72.73;95895.75;5094918;28;20436;-53
2022/01/20 05:20:40;;;;;;;0.30;0.20;;;;;;;-2.02;72.98;96083.31;5094747;28;20429;-53
2022/01/20 05:23:08;;;;;;;0.73;0.73;;;;;;;-1.99;73.54;96086.38;5094540;28;20432;-54
2022/01/20 05:25:38;;;;;;;1.30;1.30;;;;;;;-1.91;72.53;96093.31;5094592;28;20495;-53
2022/01/20 05:28:07;;;;;;;2.80;2.70;;;;;;;-2.27;75.96;96080.06;5094773;28;20861;-53
2022/01/20 05:30:35;;;;;;;0.20;0.20;;;;;;;-2.35;78.37;96089.72;5093437;28;20932;-54
2022/01/20 05:33:04;;;;;;;0.67;0.67;;;;;;;-2.30;79.66;96092.59;5094773;28;20463;-53
2022/01/20 05:35:32;;;;;;;0.40;0.40;;;;;;;-2.10;76.19;96081.56;5094105;28;20460;-54
2022/01/20 05:38:03;;;;;;;0.40;0.40;;;;;;;-1.96;75.88;96078.25;5094152;28;20489;-53
2022/01/20 05:40:31;;;;;;;0.60;0.60;;;;;;;-1.30;74.53;96079.31;5094244;28;20427;-54
2022/01/20 05:43:00;;;;;;;0.20;0.20;;;;;;;-1.64;70.05;96086.75;5093694;28;20474;-53
2022/01/20 05:45:28;;;;;;;0.40;0.30;;;;;;;-2.16;72.12;96045.94;5094311;28;21085;-53
2022/01/20 05:48:10;;;;;;;1.13;1.13;;;;;;;-2.27;74.94;96085.25;5093545;28;20429;-53
2022/01/20 05:50:39;;;;;;;0.27;0.20;;;;;;;-2.03;74.02;96089.50;5093442;28;20486;-53
2022/01/20 05:53:09;;;;;;;1.13;1.03;;;;;;;-1.76;73.21;96069.97;5094022;28;20473;-54
2022/01/20 05:55:43;;;;;;;0.30;0.20;;;;;;;-2.21;68.30;95883.84;5093040;28;20558;-54
2022/01/20 05:58:11;;;;;;;0.90;0.90;;;;;;;-1.41;66.80;96082.34;5094215;28;20779;-53
2022/01/20 06:00:40;;;;;;;2.57;2.30;;;;;;;-1.43;66.91;96073.91;5093020;28;20436;-53
2022/01/20 06:05:59;;;;;;;0.30;0.20;;;;;;;-1.51;68.07;96061.81;5093189;28;20436;-53
2022/01/20 06:08:29;;;;;;;0.30;0.30;;;;;;;-1.76;69.97;96060.41;5093124;28;20460;-54
2022/01/20 06:10:57;;;;;;;0.37;0.37;;;;;;;-1.79;70.88;96065.94;5093066;28;21209;-53
2022/01/20 06:13:26;;;;;;;0.30;0.30;;;;;;;-1.36;68.79;96064.41;5093636;28;20447;-53
2022/01/20 06:15:55;;;;;;;0.30;0.20;;;;;;;-3.40;79.75;96035.63;5093432;28;20504;-53
2022/01/20 06:18:23;;;;;;;2.20;1.70;;;;;;;-3.33;88.91;96072.88;5093263;28;20921;-53
2022/01/20 06:20:53;;;;;;;1.03;1.03;;;;;;;-4.67;87.25;95878.53;5093640;28;20846;-54
2022/01/20 06:23:22;;;;;;;2.30;2.20;;;;;;;-3.30;89.66;96082.91;5092623;28;20463;-53
2022/01/20 06:25:53;;;;;;;1.90;1.90;;;;;;;-3.22;90.55;96075.94;5092975;28;20432;-53
2022/01/20 06:28:21;;;;;;;0.30;0.30;;;;;;;-3.56;94.52;96077.94;5093276;28;20440;-53
2022/01/20 06:30:50;;;;;;;2.23;2.10;;;;;;;-3.26;91.71;96043.53;5093289;28;20472;-53
2022/01/20 06:33:20;;;;;;;0.20;0.20;;;;;;;-4.10;88.14;95885.25;5093294;28;20432;-53
2022/01/20 06:35:49;;;;;;;4.97;3.30;;;;;;;-2.65;86.31;96084.31;5092837;28;20521;-53
2022/01/20 06:38:18;;;;;;;0.30;0.20;;;;;;;-1.94;81.06;96078.06;5092842;28;20461;-53
2022/01/20 06:40:47;;;;;;;0.33;0.33;;;;;;;-0.58;69.86;96075.09;5092758;28;20557;-53
2022/01/20 06:43:18;;;;;;;0.20;0.20;;;;;;;-1.24;66.04;95955.59;5092440;28;20499;-53
2022/01/20 06:45:46;;;;;;;0.53;0.53;;;;;;;-1.52;65.94;95934.63;5092425;28;20466;-52
2022/01/20 06:48:15;;;;;;;0.30;0.30;;;;;;;-1.21;62.52;95885.03;5093131;28;20439;-53
2022/01/20 06:50:44;;;;;;;0.20;0.20;;;;;;;0.36;59.81;96051.44;5092282;28;20490;-53
2022/01/20 06:53:13;;;;;;;0.20;0.20;;;;;;;0.72;58.15;96055.72;5092516;28;20467;-53
2022/01/20 06:55:41;;;;;;;0.20;0.20;;;;;;;-0.17;56.86;95861.78;5092186;28;20497;-53
2022/01/20 06:58:10;;;;;;;0.50;0.50;;;;;;;0.97;57.01;96052.50;5092663;28;20517;-53
2022/01/20 07:00:40;;;;;;;0.20;0.10;;;;;;;1.46;54.20;96048.94;5092404;28;20498;-53
2022/01/20 07:03:08;;;;;;;0.60;0.60;;;;;;;1.85;53.49;96043.84;5091838;28;20433;-54
2022/01/20 07:05:37;;;;;;;0.40;0.40;;;;;;;2.11;52.06;96028.22;5092670;28;20842;-54
2022/01/20 07:08:07;;;;;;;1.37;1.17;;;;;;;2.10;50.99;96057.19;5092669;28;20448;-55
2022/01/20 07:10:35;;;;;;;0.30;0.20;;;;;;;2.42;50.68;96031.06;5092407;28;20924;-54
2022/01/20 07:13:04;;;;;;;2.10;2.07;;;;;;;1.34;49.88;95842.41;5092519;28;21001;-54
2022/01/20 07:15:32;;;;;;;0.40;0.40;;;;;;;3.01;49.59;96044.09;5092420;28;20518;-54
2022/01/20 07:18:02;;;;;;;3.27;3.17;;;;;;;3.34;48.65;96051.88;5092753;28;20432;-54
2022/01/20 07:20:31;;;;;;;0.43;0.43;;;;;;;3.35;47.47;96018.63;5091774;28;20468;-53
2022/01/20 07:23:00;;;;;;;2.40;2.30;;;;;;;2.13;46.16;95737.78;5091978;28;20432;-53
2022/01/20 07:25:28;;;;;;;4.60;4.30;;;;;;;4.24;45.04;96040.38;5091920;28;20436;-53
2022/01/20 07:27:57;;;;;;;0.70;0.70;;;;;;;4.03;44.26;95922.66;5092371;28;20936;-53
2022/01/20 07:30:33;;;;;;;0.40;0.40;;;;;;;4.52;42.58;95869.34;5091694;28;20515;-52
2022/01/20 07:33:05;;;;;;;2.47;2.03;;;;;;;6.16;41.49;96000.38;5091939;28;20428;-52
2022/01/20 07:35:35;;;;;;;0.73;0.73;;;;;;;6.59;42.48;95994.03;5091670;28;20483;-48
2022/01/20 07:38:04;;;;;;;0.50;0.50;;;;;;;6.17;40.10;95999.31;5092054;28;20935;-48
2022/01/20 07:40:33;;;;;;;0.83;0.80;;;;;;;6.03;40.71;95987.41;5091775;28;20500;-48
2022/01/20 07:43:02;;;;;;;5.00;1.33;;;;;;;5.87;39.27;95966.19;5092399;28;20858;-50
2022/01/20 07:45:31;;;;;;;0.87;0.87;;;;;;;6.53;39.19;95992.31;5091694;28;20432;-48
2022/01/20 07:47:59;;;;;;;1.73;1.50;;;;;;;6.80;38.10;95986.41;5091755;28;20451;-49
2022/01/20 07:50:29;;;;;;;4.10;2.43;;;;;;;6.63;39.79;95987.31;5092095;28;20428;-48
2022/01/20 07:52:58;;;;;;;1.80;1.70;;;;;;;6.92;38.32;95989.00;5091961;28;20916;-48
2022/01/20 07:55:26;;;;;;;5.37;2.20;;;;;;;7.35;37.49;95988.63;5091810;28;20499;-48
2022/01/20 07:57:54;;;;;;;8.73;1.80;;;;;;;6.74;37.76;95986.50;5091455;28;20952;-49
2022/01/20 08:00:23;;;;;;;0.97;0.97;;;;;;;7.55;37.03;95971.38;5091960;28;20477;-49
2022/01/20 08:02:51;;;;;;;2.77;2.57;;;;;;;7.75;36.54;95976.25;5091656;28;20512;-49
2022/01/20 08:05:20;;;;;;;1.10;1.10;;;;;;;7.53;36.84;95976.09;5091230;28;20435;-49
2022/01/20 08:07:50;;;;;;;2.67;2.47;;;;;;;7.68;36.99;95951.84;5091514;28;20456;-49
2022/01/20 08:10:18;;;;;;;1.97;1.60;;;;;;;8.56;35.48;95973.22;5091349;28;20515;-49
2022/01/20 08:12:47;;;;;;;0.40;0.40;;;;;;;8.86;35.75;95967.59;5091793;28;20510;-49
2022/01/20 08:15:15;;;;;;;1.87;1.73;;;;;;;8.28;35.09;95963.50;5091529;28;20436;-50
2022/01/20 08:17:44;;;;;;;1.30;1.20;;;;;;;8.58;34.76;95976.41;5091624;28;20426;-50
2022/01/20 08:20:15;;;;;;;0.80;0.80;;;;;;;9.93;33.51;95968.69;5091794;28;20917;-50
2022/01/20 08:22:43;;;;;;;2.83;1.30;;;;;;;10.72;32.07;95963.63;5091879;28;20464;-50
2022/01/20 08:25:17;;;;;;;1.77;1.57;;;;;;;10.06;32.65;95959.56;5091053;28;20478;-50
2022/01/20 08:27:48;;;;;;;0.50;0.40;;;;;;;10.88;32.54;95953.94;5091520;28;20477;-50
2022/01/20 08:30:19;;;;;;;0.80;0.60;;;;;;;10.26;32.13;95940.44;5091574;28;20497;-51
2022/01/20 08:32:49;;;;;;;2.00;1.27;;;;;;;10.35;32.66;95941.59;5091563;28;20456;-51
2022/01/20 08:35:19;;;;;;;2.03;1.50;;;;;;;10.54;33.05;95942.78;5095278;28;20433;-51
2022/01/20 08:37:47;;;;;;;0.63;0.63;;;;;;;10.27;32.28;95952.63;5095776;28;20291;-51
2022/01/20 08:40:22;;;;;;;1.93;1.83;;;;;;;10.32;32.05;95939.44;5095484;28;20436;-51
2022/01/20 08:42:53;;;;;;;1.30;1.20;;;;;;;10.24;32.61;95948.66;5095541;28;20428;-51
2022/01/20 08:45:23;;;;;;;1.33;1.33;;;;;;;10.19;32.24;95940.66;5095091;28;20428;-53
2022/01/20 08:47:54;;;;;;;1.87;1.07;;;;;;;10.30;31.73;95933.56;5095125;28;20428;-53
2022/01/20 08:50:24;;;;;;;0.40;0.40;;;;;;;10.55;31.72;95944.41;5094308;28;20440;-53
2022/01/20 08:52:53;;;;;;;2.23;2.13;;;;;;;11.22;31.65;95940.06;5094981;28;20811;-54
2022/01/20 08:55:26;;;;;;;5.13;1.33;;;;;;;12.54;30.89;95934.06;5095138;28;20541;-52
2022/01/20 08:57:55;;;;;;;1.60;1.50;;;;;;;13.84;29.59;95929.50;5094622;28;20475;-52
2022/01/20 09:00:27;;;;;;;1.23;1.17;;;;;;;12.31;29.90;95920.50;5095380;28;20773;-51
2022/01/20 09:02:56;;;;;;;1.23;1.13;;;;;;;12.71;30.20;95897.34;5094654;28;20513;-53
2022/01/20 09:05:25;;;;;;;1.33;0.80;;;;;;;13.40;28.42;95923.31;5093801;28;20432;-52
2022/01/20 09:07:54;;;;;;;1.00;1.00;;;;;;;12.81;29.01;95917.03;5093524;28;20432;-51
2022/01/20 09:10:23;;;;;;;1.67;0.80;;;;;;;13.19;28.38;95919.09;5094880;28;20429;-52
2022/01/20 09:15:40;;;;;;;0.40;0.40;;;;;;;13.12;28.49;95910.63;5094561;28;20440;-51
2022/01/20 09:18:10;;;;;;;1.13;0.93;;;;;;;13.86;27.31;95871.41;5094665;28;20515;-51
2022/01/20 09:20:40;;;;;;;0.60;0.60;;;;;;;13.11;27.55;95914.31;5094176;28;20519;-51
2022/01/20 09:23:09;;;;;;;1.03;1.03;;;;;;;12.83;28.14;95912.22;5094753;28;20955;-51
2022/01/20 09:25:41;;;;;;;5.63;0.90;;;;;;;13.57;27.94;95907.78;5094653;28;20493;-51
2022/01/20 09:28:10;;;;;;;0.57;0.57;;;;;;;14.71;26.84;95897.72;5094234;28;20490;-51
2022/01/20 09:30:40;;;;;;;0.70;0.70;;;;;;;13.99;27.07;95897.44;5094014;28;20853;-52
2022/01/20 09:33:14;;;;;;;1.60;1.50;;;;;;;13.88;26.22;95887.13;5094689;28;20428;-50
2022/01/20 09:35:44;;;;;;;1.20;1.10;;;;;;;14.26;25.84;95882.88;5094890;28;20482;-50
2022/01/20 09:38:15;;;;;;;1.27;1.17;;;;;;;13.77;25.69;95880.25;5093536;28;20475;-49
2022/01/20 09:40:44;;;;;;;0.70;0.70;;;;;;;14.18;25.67;95864.78;5094327;28;20460;-49
2022/01/20 09:43:14;;;;;;;0.90;0.90;;;;;;;13.91;25.97;95862.59;5094356;28;20788;-50
2022/01/20 09:45:44;;;;;;;1.47;0.60;;;;;;;14.88;26.10;95856.19;5092934;28;20441;-50
2022/01/20 09:48:12;;;;;;;0.97;0.80;;;;;;;14.39;25.83;95852.94;5094020;28;20928;-49
2022/01/20 09:50:41;;;;;;;1.47;0.67;;;;;;;13.95;26.29;95853.75;5093335;28;21176;-49
2022/01/20 09:53:09;;;;;;;9.53;3.90;;;;;;;14.54;26.24;95837.59;5094041;28;21010;-49
2022/01/20 09:55:37;;;;;;;2.20;2.10;;;;;;;14.67;25.70;95830.81;5094120;28;20507;-50
2022/01/20 09:58:08;;;;;;;0.50;0.50;;;;;;;14.39;25.85;95824.41;5093809;28;20503;-50
2022/01/20 10:00:37;;;;;;;7.77;2.33;;;;;;;14.06;26.00;95822.50;5093162;28;20425;-50
2022/01/20 10:03:09;;;;;;;2.10;2.00;;;;;;;14.88;25.70;95805.47;5093802;28;20963;-50
2022/01/20 10:05:40;;;;;;;3.10;2.37;;;;;;;15.25;24.81;95794.13;5093774;28;20424;-50
2022/01/20 10:08:12;;;;;;;1.57;0.80;;;;;;;14.82;24.98;95790.63;5093648;28;20429;-49
2022/01/20 10:10:48;;;;;;;1.33;1.23;;;;;;;15.09;25.05;95763.34;5093207;28;20428;-49
2022/01/20 10:13:19;;;;;;;2.10;1.00;;;;;;;14.48;25.42;95768.56;5093440;28;20420;-50
2022/01/20 10:15:59;;;;;;;0.67;0.67;;;;;;;15.51;25.26;95767.91;5093524;28;20458;-50
2022/01/20 10:18:29;;;;;;;4.50;1.43;;;;;;;15.96;24.09;95753.84;5093313;28;21017;-49
2022/01/20 10:21:00;;;;;;;2.50;0.67;;;;;;;17.15;22.89;95759.94;5093429;28;20432;-49
2022/01/20 10:23:36;;;;;;;1.90;1.80;;;;;;;15.48;24.23;95760.44;5093731;28;20450;-49
2022/01/20 10:26:10;;;;;;;7.23;1.57;;;;;;;15.27;24.48;95752.69;5093433;28;20452;-49
2022/01/20 10:28:55;;;;;;;1.57;1.47;;;;;;;16.09;23.81;95738.94;5092489;28;20424;-49
2022/01/20 10:31:39;;;;;;;1.80;0.90;;;;;;;16.11;23.71;95737.53;5093081;28;21008;-49
2022/01/20 10:34:19;;;;;;;3.07;1.80;;;;;;;15.47;24.83;95737.47;5093348;28;20464;-49
2022/01/20 10:36:53;;;;;;;2.17;1.83;;;;;;;16.17;23.36;95727.53;5093170;28;20593;-49
2022/01/20 10:39:29;;;;;;;0.60;0.60;;;;;;;18.11;22.04;95708.72;5093389;28;20420;-49
2022/01/20 10:42:00;;;;;;;2.10;2.00;;;;;;;16.72;22.44;95723.09;5092375;28;20764;-49
2022/01/20 10:44:41;;;;;;;0.70;0.70;;;;;;;17.20;23.04;95713.53;5093225;28;20459;-49
2022/01/20 10:47:25;;;;;;;1.23;1.13;;;;;;;17.38;22.28;95711.78;5093118;28;20424;-49
2022/01/20 10:49:54;;;;;;;2.17;2.07;;;;;;;16.17;23.37;95708.81;5092750;28;20887;-50
2022/01/20 10:52:24;;;;;;;1.40;1.30;;;;;;;16.65;22.89;95710.09;5092344;28;20473;-50
2022/01/20 10:54:55;;;;;;;1.43;1.37;;;;;;;16.08;23.26;95695.34;5092473;28;20440;-49
2022/01/20 10:57:27;;;;;;;1.40;1.10;;;;;;;16.31;23.47;95694.41;5091994;28;21024;-49
2022/01/20 10:59:59;;;;;;;0.70;0.60;;;;;;;16.80;23.20;95684.91;5092953;28;20459;-54
2022/01/20 11:02:29;;;;;;;9.20;1.10;;;;;;;17.41;22.32;95668.28;5092226;28;20468;-49
2022/01/20 11:04:58;;;;;;;0.97;0.97;;;;;;;17.59;21.85;95676.19;5092811;28;20465;-51
2022/01/20 11:07:28;;;;;;;3.53;2.00;;;;;;;16.85;22.48;95668.75;5091854;28;20432;-50
2022/01/20 11:10:01;;;;;;;1.10;1.00;;;;;;;17.25;21.91;95670.56;5092786;28;20428;-50
2022/01/20 11:12:30;;;;;;;0.90;0.90;;;;;;;17.72;21.65;95672.69;5093027;28;20760;-51
2022/01/20 11:15:08;;;;;;;1.73;1.70;;;;;;;17.07;21.52;95664.25;5091737;28;20436;-51
2022/01/20 11:17:40;;;;;;;0.60;0.60;;;;;;;16.63;21.59;95668.66;5092451;28;20564;-51
2022/01/20 11:20:11;;;;;;;1.67;1.57;;;;;;;16.17;21.62;95597.28;5092497;28;20477;-51
2022/01/20 11:22:52;;;;;;;1.83;1.50;;;;;;;16.05;22.60;95663.03;5092827;28;20799;-49
2022/01/20 11:25:22;;;;;;;1.30;1.30;;;;;;;16.00;23.13;95650.56;5092481;28;20864;-51
2022/01/20 11:27:53;;;;;;;0.50;0.50;;;;;;;15.70;22.47;95648.41;5092388;28;20432;-50
2022/01/20 11:30:26;;;;;;;0.40;0.30;;;;;;;17.01;21.12;95648.56;5091635;28;20562;-51
2022/01/20 11:33:07;;;;;;;1.23;1.03;;;;;;;17.60;20.88;95634.91;5092107;28;20820;-51
2022/01/20 11:35:38;;;;;;;0.50;0.40;;;;;;;17.96;20.20;95636.69;5091614;28;21013;-50
2022/01/20 11:38:07;;;;;;;1.27;1.17;;;;;;;17.55;20.34;95620.84;5091911;28;20510;-50
2022/01/20 11:40:36;;;;;;;2.40;2.30;;;;;;;17.20;20.47;95632.38;5091722;28;20440;-50
2022/01/20 11:43:10;;;;;;;1.67;0.63;;;;;;;18.00;20.15;95621.56;5092142;28;20424;-50
2022/01/20 11:45:43;;;;;;;2.60;1.20;;;;;;;16.54;21.15;95616.94;5092146;28;20463;-51
2022/01/20 11:48:14;;;;;;;0.50;0.40;;;;;;;18.79;19.50;95604.34;5092470;28;20432;-50
2022/01/20 11:50:43;;;;;;;0.40;0.30;;;;;;;18.98;19.49;95604.03;5091616;28;20433;-50
2022/01/20 11:53:15;;;;;;;0.40;0.23;;;;;;;18.09;19.17;95604.41;5092509;28;20417;-50
2022/01/20 11:55:50;;;;;;;0.40;0.40;;;;;;;18.25;19.46;95599.41;5092221;28;20424;-51
2022/01/20 11:58:21;;;;;;;1.87;1.10;;;;;;;18.44;19.63;95596.50;5091104;28;20570;-50
2022/01/20 12:01:01;;;;;;;0.40;0.30;;;;;;;18.75;18.39;95505.91;5091692;28;20499;-50
2022/01/20 12:03:30;;;;;;;0.40;0.30;;;;;;;19.48;18.03;95590.97;5091511;28;20427;-49
2022/01/20 12:06:00;;;;;;;0.90;0.90;;;;;;;18.28;19.31;95585.38;5091208;28;20817;-50
2022/01/20 12:08:29;;;;;;;0.60;0.60;;;;;;;18.18;17.60;95573.06;5095460;28;20454;-50
2022/01/20 12:11:02;;;;;;;4.60;2.40;;;;;;;17.83;17.80;95574.00;5098437;28;21009;-50
2022/01/20 12:13:31;;;;;;;4.73;2.00;;;;;;;17.84;18.63;95578.25;5098511;28;20452;-49
2022/01/20 12:16:03;;;;;;;0.50;0.30;;;;;;;18.60;17.88;95570.81;5098577;28;20464;-49
2022/01/20 12:18:32;;;;;;;1.37;0.60;;;;;;;18.84;18.20;95571.19;5097708;28;20496;-49
2022/01/20 12:21:04;;;;;;;0.97;0.97;;;;;;;19.57;17.63;95490.34;5098283;28;20428;-49
2022/01/20 12:23:42;;;;;;;1.07;0.60;;;;;;;20.56;16.22;95558.13;5097693;28;20424;-50
2022/01/20 12:26:10;;;;;;;1.67;1.00;;;;;;;20.11;16.14;95550.56;5097982;28;20447;-50
2022/01/20 12:28:39;;;;;;;0.60;0.50;;;;;;;18.26;16.59;95550.84;5098436;28;20424;-49
2022/01/20 12:31:11;;;;;;;4.03;0.77;;;;;;;17.93;17.84;95546.13;5098358;28;20952;-57
2022/01/20 12:33:45;;;;;;;0.80;0.80;;;;;;;17.53;18.10;95553.34;5097624;28;20424;-53
2022/01/20 12:36:14;;;;;;;0.80;0.80;;;;;;;18.29;18.47;95550.19;5098332;28;20432;-53
2022/01/20 12:38:46;;;;;;;0.70;0.70;;;;;;;19.06;17.92;95551.41;5098035;28;20460;-53
2022/01/20 12:41:16;;;;;;;0.77;0.73;;;;;;;18.94;17.40;95544.00;5098405;28;20452;-53
2022/01/20 12:43:46;;;;;;;1.27;1.17;;;;;;;19.26;17.66;95540.81;5097715;28;20905;-53